Latest Weather Observations for Roebourne Airport

IDW60801

Issued at 10:32 am WST Monday 3 August 2015 (issued every 30 minutes, with the page automatically refreshed every 10 minutes)

About weather observations | Map of weather stations | Latest weather observations for WA | Other Formats
Station Details ID: 004090 Name: ROEBOURNE AERO Lat: -20.76 Lon: 117.16 Height: 10.7 m
Data from the previous 72 hours. | See also: Recent months at Roebourne Airport
Date/Time
WST
Temp
°C
App
Temp
°C
Dew
Point
Rel
Hum
%
Delta-T
°C
Wind Press
QNH
hPa
Press
MSL
hPa
Rain
since 9 am
mm
Dir
 
Spd
km/h
Gust
km/h
Spd
kts
Gust
kts
03/10:30am 25.8 19.3 8.8 34 9.2 ESE 33 46 18 25 1022.5 1022.4 0.0
03/10:00am 24.6 17.7 9.0 37 8.4 E 35 48 19 26 1022.4 1022.3 0.0
03/09:30am 23.9 16.8 9.5 40 7.8 ESE 37 54 20 29 1022.3 1022.2 0.0
03/09:00am 23.0 15.7 10.1 44 7.0 ESE 39 50 21 27 1022.1 1022.0 0.0
03/08:30am 22.2 15.6 10.0 46 6.6 ESE 35 46 19 25 1021.8 1021.7 0.0
03/08:00am 21.4 15.9 10.6 50 5.9 ESE 30 41 16 22 1021.5 1021.4 0.0
03/07:30am 20.4 15.3 10.5 53 5.4 ESE 28 41 15 22 1021.2 1021.1 0.0
03/07:00am 19.3 14.1 10.3 56 4.8 ESE 28 33 15 18 1020.8 1020.7 0.0
03/06:30am 19.0 14.7 10.6 58 4.5 ESE 24 30 13 16 1020.3 1020.2 0.0
03/06:00am 19.2 15.2 10.5 57 4.7 ESE 22 28 12 15 1019.9 1019.8 0.0
03/05:30am 18.8 15.4 10.4 58 4.5 ESE 19 24 10 13 1019.4 1019.3 0.0
03/05:00am 18.8 15.1 10.1 57 4.6 ESE 20 24 11 13 1019.0 1018.9 0.0
03/04:30am 19.4 15.2 9.9 54 5.1 ESE 22 28 12 15 1018.8 1018.7 0.0
03/04:00am 19.7 15.5 9.6 52 5.4 ESE 22 28 12 15 1018.6 1018.5 0.0
03/03:30am 20.6 15.6 9.5 49 5.9 ESE 26 32 14 17 1018.5 1018.4 0.0
03/03:00am 20.8 16.1 9.4 48 6.1 ESE 24 32 13 17 1018.2 1018.1 0.0
03/02:30am 21.7 17.4 9.3 45 6.6 ESE 22 32 12 17 1018.2 1018.1 0.0
03/02:00am 18.1 16.3 9.5 57 4.5 SE 9 15 5 8 1018.2 1018.1 0.0
03/01:30am 17.1 15.9 10.2 64 3.7 SE 7 13 4 7 1018.5 1018.4 0.0
03/01:00am 17.2 15.6 10.3 64 3.7 SE 9 11 5 6 1018.7 1018.6 0.0
03/12:30am 17.3 15.5 10.9 66 3.4 SE 11 11 6 6 1018.8 1018.7 0.0
03/12:00am 17.0 16.9 12.1 73 2.7 ESE 4 6 2 3 1018.9 1018.8 0.0
 
Date/Time
WST
Temp
°C
App
Temp
°C
Dew
Point
Rel
Hum
%
Delta-T
°C
Wind Press
QNH
hPa
Press
MSL
hPa
Rain
since 9 am
mm
Dir
 
Spd
km/h
Gust
km/h
Spd
kts
Gust
kts
02/11:30pm 16.6 14.9 12.4 76 2.3 S 13 15 7 8 1019.0 1018.9 0.0
02/11:00pm 17.3 16.1 11.6 69 3.1 SSW 9 11 5 6 1019.2 1019.1 0.0
02/10:30pm 19.2 19.2 12.5 65 3.7 SW 4 6 2 3 1019.2 1019.1 0.0
02/10:00pm 20.6 20.4 13.1 62 4.3 W 6 7 3 4 1019.4 1019.3 0.0
02/09:30pm 21.3 19.8 13.2 60 4.6 SW 13 15 7 8 1019.2 1019.1 0.0
02/09:00pm 21.7 20.9 12.8 57 5.1 WSW 9 13 5 7 1019.4 1019.3 0.0
02/08:30pm 22.0 20.5 13.1 57 5.1 WSW 13 13 7 7 1019.3 1019.2 0.0
02/08:00pm 22.7 22.1 13.5 56 5.3 WSW 9 11 5 6 1019.1 1019.0 0.0
02/07:30pm 23.5 22.6 13.7 54 5.7 WSW 11 13 6 7 1018.6 1018.5 0.0
02/07:00pm 24.2 22.5 13.7 52 6.1 WSW 15 19 8 10 1018.2 1018.1 0.0
02/06:30pm 25.5 23.4 11.3 41 8.0 WSW 13 19 7 10 1017.9 1017.8 0.0
02/06:00pm 26.2 24.2 10.0 36 9.0 W 11 17 6 9 1017.6 1017.5 0.0
02/05:30pm 27.8 25.5 10.5 34 9.8 WNW 13 19 7 10 1017.4 1017.3 0.0
02/05:00pm 29.8 27.8 8.8 27 11.6 N 9 13 5 7 1017.2 1017.1 0.0
02/04:30pm 30.3 27.8 8.1 25 12.2 N 11 15 6 8 1017.1 1017.0 0.0
02/04:00pm 30.3 26.8 8.7 26 12.0 N 17 20 9 11 1017.0 1016.9 0.0
02/03:30pm 30.7 27.1 8.4 25 12.3 N 17 22 9 12 1017.1 1017.0 0.0
02/03:00pm 31.7 28.3 9.3 25 12.6 NNE 17 26 9 14 1017.3 1017.2 0.0
02/02:30pm 31.8 27.7 6.1 20 13.8 ENE 17 24 9 13 1017.4 1017.3 0.0
02/02:00pm 31.4 28.9 6.5 21 13.4 E 9 24 5 13 1017.5 1017.4 0.0
02/01:30pm 31.4 27.4 6.5 21 13.4 ENE 17 26 9 14 1017.7 1017.6 0.0
02/01:00pm 31.3 26.9 6.4 21 13.3 ESE 19 32 10 17 1018.0 1017.9 0.0
02/12:30pm 31.2 27.0 7.6 23 12.9 ESE 19 30 10 16 1018.3 1018.2 0.0
02/12:00pm 30.6 26.4 8.3 25 12.3 ESE 20 30 11 16 1018.6 1018.5 0.0
02/11:30am 29.6 25.0 8.1 26 11.8 ESE 22 30 12 16 1018.8 1018.7 0.0
02/11:00am 28.3 23.3 8.1 28 10.9 ESE 24 32 13 17 1019.3 1019.2 0.0
02/10:30am 27.7 21.7 8.6 30 10.4 ESE 30 39 16 21 1019.7 1019.6 0.0
02/10:00am 26.7 20.2 8.2 31 10.0 ESE 32 41 17 22 1020.0 1019.9 0.0
02/09:30am 25.6 19.2 8.6 34 9.2 ESE 32 39 17 21 1020.0 1019.9 0.0
02/09:00am 24.6 19.3 8.5 36 8.6 ESE 26 33 14 18 1019.8 1019.7 0.0
02/08:54am 24.3 19.5 8.7 37 8.4 ESE 24 33 13 18 1019.8 1019.7 0.0
02/08:30am 22.7 21.1 10.2 45 6.8 ESE 9 13 5 7 1019.8 1019.7 0.0
02/08:00am 19.1 18.4 9.9 55 4.9 S 4 7 2 4 1019.5 1019.4 0.0
02/07:30am 15.0 14.7 10.2 73 2.5 SW 2 6 1 3 1019.2 1019.1 0.0
02/07:00am 12.0 10.5 8.5 79 1.7 SSW 6 7 3 4 1018.9 1018.8 0.0
02/06:30am 12.4 10.8 8.7 78 1.8 SW 7 9 4 5 1018.3 1018.2 0.0
02/06:00am 12.0 9.9 8.1 77 1.9 SW 9 11 5 6 1018.0 1017.9 0.0
02/05:30am 12.5 10.8 8.4 76 2.0 SW 7 7 4 4 1017.6 1017.5 0.0
02/05:00am 12.6 10.3 7.3 70 2.6 SSW 9 11 5 6 1017.5 1017.4 0.0
02/04:30am 14.9 13.2 8.4 65 3.3 WSW 7 11 4 6 1017.3 1017.2 0.0
02/04:00am 16.1 14.6 9.3 64 3.5 WSW 7 9 4 5 1017.3 1017.2 0.0
02/03:30am 16.5 14.6 9.2 62 3.8 WSW 9 9 5 5 1017.2 1017.1 0.0
02/03:00am 17.1 15.7 9.5 61 4.0 SW 7 9 4 5 1017.4 1017.3 0.0
02/02:30am 16.9 14.5 10.1 64 3.6 WSW 13 15 7 8 1017.6 1017.5 0.0
02/02:00am 16.9 15.4 10.5 66 3.4 WNW 9 11 5 6 1017.8 1017.7 0.0
02/01:30am 16.7 14.7 10.3 66 3.4 W 11 13 6 7 1018.0 1017.9 0.0
02/01:00am 16.9 15.3 10.1 64 3.6 W 9 13 5 7 1018.1 1018.0 0.0
02/12:30am 19.4 17.2 10.7 57 4.7 WSW 13 17 7 9 1018.0 1017.9 0.0
02/12:00am 19.9 17.8 11.1 57 4.8 WSW 13 17 7 9 1018.0 1017.9 0.0
 
Date/Time
WST
Temp
°C
App
Temp
°C
Dew
Point
Rel
Hum
%
Delta-T
°C
Wind Press
QNH
hPa
Press
MSL
hPa
Rain
since 9 am
mm
Dir
 
Spd
km/h
Gust
km/h
Spd
kts
Gust
kts
01/11:30pm 19.8 17.9 11.8 60 4.4 WSW 13 17 7 9 1018.0 1017.9 0.0
01/11:00pm 19.9 18.1 12.2 61 4.3 WSW 13 17 7 9 1018.1 1018.0 0.0
01/10:30pm 20.6 18.4 12.1 58 4.8 SW 15 19 8 10 1018.1 1018.0 0.0
01/10:00pm 21.7 18.7 12.0 54 5.4 WSW 19 26 10 14 1018.0 1017.9 0.0
01/09:30pm 22.3 19.1 12.0 52 5.8 WSW 20 26 11 14 1017.9 1017.8 0.0
01/09:00pm 22.6 19.5 12.3 52 5.8 WSW 20 26 11 14 1017.7 1017.6 0.0
01/08:30pm 23.2 20.2 12.5 51 6.1 WSW 20 28 11 15 1017.4 1017.3 0.0
01/08:00pm 23.3 20.4 12.3 50 6.2 W 19 22 10 12 1017.3 1017.2 0.0
01/07:30pm 23.9 21.2 12.8 49 6.4 W 19 24 10 13 1017.0 1016.9 0.0
01/07:00pm 24.4 21.8 13.9 52 6.2 W 20 28 11 15 1016.6 1016.5 0.0
01/06:30pm 25.1 23.0 14.6 52 6.3 W 19 24 10 13 1016.2 1016.1 0.0
01/06:00pm 26.3 24.1 14.4 48 7.1 W 19 24 10 13 1015.8 1015.7 0.0
01/05:30pm 28.5 24.6 8.7 29 10.9 WSW 19 24 10 13 1015.7 1015.6 0.0
01/05:00pm 29.3 25.4 9.4 29 11.1 SW 20 28 11 15 1015.5 1015.4 0.0
01/04:30pm 30.0 26.1 9.5 28 11.5 WSW 20 32 11 17 1015.3 1015.2 0.0
01/04:00pm 30.7 27.2 10.1 28 11.7 SW 19 28 10 15 1015.1 1015.0 0.0
01/03:30pm 31.2 27.8 11.1 29 11.6 SW 20 37 11 20 1015.2 1015.1 0.0
01/03:00pm 30.8 28.2 10.7 29 11.5 WSW 15 26 8 14 1015.2 1015.1 0.0
01/02:30pm 30.8 28.7 11.2 30 11.3 WSW 13 20 7 11 1015.4 1015.3 0.0
01/02:00pm 30.7 28.0 11.6 31 11.1 SW 17 26 9 14 1015.6 1015.5 0.0
01/01:30pm 30.5 28.0 11.0 30 11.2 WSW 15 30 8 16 1015.9 1015.8 0.0
01/01:00pm 29.2 26.1 11.7 34 10.1 WSW 19 28 10 15 1016.3 1016.2 0.0
01/12:30pm 29.6 27.0 12.1 34 10.2 SW 17 24 9 13 1016.7 1016.6 0.0
01/12:00pm 29.3 26.7 13.1 37 9.6 SW 19 26 10 14 1017.1 1017.0 0.0
01/11:30am 29.1 27.3 13.3 37 9.4 SSW 15 22 8 12 1017.5 1017.4 0.0
01/11:00am 28.7 27.1 13.8 40 8.9 SSW 15 24 8 13 1017.8 1017.7 0.0
01/10:30am 28.0 27.0 15.6 46 7.6 SSE 15 20 8 11 1018.2 1018.1 0.0
01/10:00am 26.4 25.3 15.4 50 6.7 S 15 20 8 11 1018.6 1018.5 0.0
01/09:30am 25.4 24.7 16.3 57 5.6 SSW 15 20 8 11 1018.6 1018.5 0.0
01/09:00am 23.1 23.9 16.4 66 4.1 WSW 7 13 4 7 1018.4 1018.3 0.0
01/08:30am 21.6 22.6 16.8 74 2.9 N 7 9 4 5 1018.0 1017.9 0.0
01/08:00am 20.1 20.7 17.7 86 1.5 SW 11 13 6 7 1017.4 1017.3 0.0
01/07:30am 16.7 17.6 16.5 99 0.1 WSW 7 9 4 5 1017.1 1017.0 0.0
01/07:00am 14.6 16.0 14.3 98 0.2 CALM 0 0 0 0 1016.7 1016.6 0.0
01/06:30am 14.8 15.9 14.6 99 0.1 W 2 6 1 3 1016.4 1016.3 0.0
01/06:00am 14.0 15.1 13.5 97 0.3 CALM 0 0 0 0 1016.1 1016.0 0.0
01/05:30am 14.4 14.5 13.9 97 0.3 W 6 7 3 4 1015.7 1015.6 0.0
01/05:00am 14.5 15.7 13.9 96 0.3 CALM 0 0 0 0 1015.6 1015.5 0.0
01/04:30am 15.6 16.5 15.0 96 0.3 WSW 4 7 2 4 1015.5 1015.4 0.0
01/04:00am 17.4 17.7 17.1 98 0.2 WNW 11 13 6 7 1015.4 1015.3 0.0
01/03:30am 16.4 16.9 15.6 95 0.5 W 7 9 4 5 1015.5 1015.4 0.0
01/03:00am 17.7 18.4 17.1 96 0.4 WNW 9 13 5 7 1015.8 1015.7 0.0
01/02:30am 18.2 19.0 17.4 95 0.5 NNW 9 11 5 6 1016.0 1015.9 0.0
01/02:00am 18.8 19.8 17.8 94 0.6 W 9 11 5 6 1016.0 1015.9 0.0
01/01:30am 19.4 19.9 18.4 94 0.6 W 13 17 7 9 1016.1 1016.0 0.0
01/01:00am 19.4 20.0 18.6 95 0.5 W 13 17 7 9 1016.4 1016.3 0.0
01/12:30am 19.1 19.8 17.9 93 0.7 W 11 15 6 8 1016.7 1016.6 0.0
01/12:00am 19.4 20.2 18.1 92 0.8 WNW 11 15 6 8 1016.8 1016.7 0.0
 
Date/Time
WST
Temp
°C
App
Temp
°C
Dew
Point
Rel
Hum
%
Delta-T
°C
Wind Press
QNH
hPa
Press
MSL
hPa
Rain
since 9 am
mm
Dir
 
Spd
km/h
Gust
km/h
Spd
kts
Gust
kts
31/11:30pm 19.9 20.7 18.2 90 1.1 W 11 13 6 7 1016.9 1016.8 0.0
31/11:00pm 20.2 20.9 18.0 87 1.4 W 11 15 6 8 1016.9 1016.8 0.0
31/10:30pm 20.7 20.6 17.9 84 1.7 W 15 17 8 9 1016.7 1016.6 0.0
31/10:00pm 20.9 21.2 17.9 83 1.9 WNW 13 17 7 9 1016.6 1016.5 0.0
31/09:30pm 21.2 21.5 18.0 82 2.0 WNW 13 17 7 9 1016.6 1016.5 0.0
31/09:00pm 21.1 21.5 18.1 83 1.9 WNW 13 17 7 9 1016.7 1016.6 0.0
31/08:30pm 20.2 22.4 16.4 79 2.3 CALM 0 0 0 0 1016.5 1016.4 0.0
31/08:00pm 20.5 22.7 16.5 78 2.4 CALM 0 7 0 4 1016.2 1016.1 0.0
31/07:30pm 20.7 21.7 15.3 71 3.2 N 4 9 2 5 1015.8 1015.7 0.0
31/07:00pm 22.4 22.5 16.4 69 3.6 NW 11 15 6 8 1015.5 1015.4 0.0
31/06:30pm 23.3 22.4 15.9 63 4.5 WNW 15 20 8 11 1015.3 1015.2 0.0
31/06:00pm 24.1 21.7 13.9 53 6.0 WNW 19 22 10 12 1015.0 1014.9 0.0
31/05:30pm 25.6 23.3 14.7 51 6.5 NW 20 28 11 15 1014.8 1014.7 0.0
31/05:00pm 26.3 23.4 15.0 49 6.8 NW 24 28 13 15 1014.6 1014.5 0.0
31/04:30pm 26.9 24.0 15.0 48 7.2 NW 24 32 13 17 1014.5 1014.4 0.0
31/04:00pm 27.7 25.5 16.0 49 7.2 NNW 22 28 12 15 1014.5 1014.4 0.0
31/03:30pm 28.0 25.2 15.3 46 7.7 NNW 24 28 13 15 1014.3 1014.2 0.0
31/03:00pm 29.3 26.0 12.7 36 9.8 N 22 28 12 15 1014.3 1014.2 0.0
31/02:30pm 29.6 26.5 13.4 37 9.7 N 22 28 12 15 1014.4 1014.3 0.0
31/02:00pm 30.3 27.3 13.6 36 10.0 N 22 28 12 15 1014.7 1014.6 0.0
31/01:30pm 31.0 27.6 13.7 34 10.4 N 24 30 13 16 1015.1 1015.0 0.0
31/01:00pm 30.5 26.5 10.5 29 11.4 N 22 30 12 16 1015.5 1015.4 0.0
31/12:30pm 30.0 25.8 11.0 31 10.9 NNE 24 32 13 17 1015.8 1015.7 0.0
31/12:00pm 30.1 27.3 12.5 34 10.3 NNE 19 30 10 16 1016.0 1015.9 0.0
31/11:30am 31.2 28.3 4.9 19 13.8 SW 9 15 5 8 1016.3 1016.2 0.0
31/11:00am 30.6 28.2 7.1 23 12.7 S 9 15 5 8 1016.8 1016.7 0.0

Other Formats:

Comma delimited format used in spreadsheet applications
http://www.bom.gov.au/fwo/IDW60801/IDW60801.94308.axf

JavaScript Object Notation format (JSON) in row-major order
http://www.bom.gov.au/fwo/IDW60801/IDW60801.94308.json